FYT6614 LATI-LIRF
Flight info
| Callsign | FYT6614 |
|---|---|
| Flight time | 1h 7m |
| Altitude | 32000 |
| Route | DIRES P92 KAPPO DCT IPKAM L995 TEA Z803 LAT |
| Aircraft | A321/M-SDE1FGHIJ1RWXY/S |
Departure
| Time | 2026-05-01 08:44 |
|---|---|
| Airport | Tirana International Airport Mother Teresa (LATI) |
Arrival
| Time | 2026-05-01 09:51 |
|---|---|
| Airport | Rome–Fiumicino Leonardo da Vinci International Airport (LIRF) |
| Time | Latitude | Longitude | Altitude | Speed | Heading |
|---|---|---|---|---|---|
| 2026-05-01 07:50 | 41.42025 | 19.71499 | 117 ft | 0 kts | 264° |
| 2026-05-01 08:34 | 41.42026 | 19.71503 | 119 ft | 2 kts | 264° |
| 2026-05-01 08:35 | 41.42027 | 19.71522 | 119 ft | 2 kts | 264° |
| 2026-05-01 08:35 | 41.42029 | 19.71541 | 118 ft | 2 kts | 264° |
| 2026-05-01 08:35 | 41.42031 | 19.71560 | 118 ft | 1 kts | 264° |
| 2026-05-01 08:35 | 41.42032 | 19.71568 | 118 ft | 1 kts | 232° |
| 2026-05-01 08:36 | 41.42037 | 19.71573 | 118 ft | 0 kts | 178° |
| 2026-05-01 08:36 | 41.42044 | 19.71572 | 118 ft | 1 kts | 173° |
| 2026-05-01 08:36 | 41.42045 | 19.71571 | 118 ft | 0 kts | 174° |
| 2026-05-01 08:38 | 41.42041 | 19.71572 | 118 ft | 1 kts | 173° |
| 2026-05-01 08:38 | 41.42014 | 19.71577 | 118 ft | 7 kts | 175° |
| 2026-05-01 08:38 | 41.41953 | 19.71582 | 119 ft | 9 kts | 176° |
| 2026-05-01 08:38 | 41.41887 | 19.71589 | 119 ft | 9 kts | 175° |
| 2026-05-01 08:39 | 41.41817 | 19.71597 | 120 ft | 10 kts | 175° |
| 2026-05-01 08:39 | 41.41745 | 19.71607 | 121 ft | 10 kts | 174° |
| 2026-05-01 08:39 | 41.41670 | 19.71618 | 122 ft | 10 kts | 173° |
| 2026-05-01 08:39 | 41.41594 | 19.71630 | 122 ft | 11 kts | 174° |
| 2026-05-01 08:40 | 41.41436 | 19.71650 | 124 ft | 11 kts | 174° |
| 2026-05-01 08:40 | 41.41356 | 19.71662 | 125 ft | 11 kts | 173° |
| 2026-05-01 08:40 | 41.41273 | 19.71671 | 126 ft | 12 kts | 175° |
| 2026-05-01 08:41 | 41.41189 | 19.71682 | 126 ft | 12 kts | 174° |
| 2026-05-01 08:41 | 41.41103 | 19.71694 | 127 ft | 12 kts | 175° |
| 2026-05-01 08:41 | 41.41015 | 19.71705 | 127 ft | 12 kts | 174° |
| 2026-05-01 08:41 | 41.40924 | 19.71720 | 128 ft | 13 kts | 169° |
| 2026-05-01 08:42 | 41.40833 | 19.71744 | 129 ft | 13 kts | 171° |
| 2026-05-01 08:42 | 41.40741 | 19.71764 | 129 ft | 13 kts | 170° |
| 2026-05-01 08:42 | 41.40649 | 19.71796 | 130 ft | 13 kts | 141° |
| 2026-05-01 08:42 | 41.40646 | 19.71910 | 130 ft | 12 kts | 79° |
| 2026-05-01 08:43 | 41.40673 | 19.72057 | 130 ft | 22 kts | 75° |
| 2026-05-01 08:43 | 41.40882 | 19.72137 | 129 ft | 64 kts | 354° |
| 2026-05-01 08:43 | 41.41572 | 19.72042 | 124 ft | 133 kts | 354° |
| 2026-05-01 08:43 | 41.42685 | 19.71921 | 267 ft | 175 kts | 357° |
| 2026-05-01 08:44 | 41.43856 | 19.71795 | 1052 ft | 171 kts | 357° |
| 2026-05-01 08:44 | 41.44999 | 19.71625 | 1840 ft | 168 kts | 358° |
| 2026-05-01 08:44 | 41.46205 | 19.71437 | 2293 ft | 185 kts | 354° |
| 2026-05-01 08:44 | 41.47403 | 19.70613 | 2684 ft | 213 kts | 316° |
| 2026-05-01 08:45 | 41.47947 | 19.68703 | 3058 ft | 240 kts | 273° |
| 2026-05-01 08:45 | 41.47423 | 19.66497 | 3395 ft | 265 kts | 232° |
| 2026-05-01 08:45 | 41.45988 | 19.64900 | 3976 ft | 276 kts | 211° |
| 2026-05-01 08:45 | 41.44352 | 19.63538 | 4807 ft | 280 kts | 211° |
| 2026-05-01 08:46 | 41.42764 | 19.62093 | 5664 ft | 282 kts | 214° |
| 2026-05-01 08:46 | 41.41188 | 19.60507 | 6517 ft | 285 kts | 217° |
| 2026-05-01 08:46 | 41.39657 | 19.58856 | 7389 ft | 286 kts | 219° |
| 2026-05-01 08:46 | 41.38152 | 19.57163 | 8266 ft | 287 kts | 220° |
| 2026-05-01 08:47 | 41.36648 | 19.55431 | 9098 ft | 289 kts | 220° |
| 2026-05-01 08:47 | 41.35141 | 19.53675 | 9907 ft | 290 kts | 220° |
| 2026-05-01 08:47 | 41.33622 | 19.51899 | 10613 ft | 296 kts | 221° |
| 2026-05-01 08:47 | 41.32034 | 19.50036 | 11018 ft | 313 kts | 221° |
| 2026-05-01 08:48 | 41.30364 | 19.48077 | 11384 ft | 329 kts | 222° |
| 2026-05-01 08:48 | 41.28625 | 19.46034 | 12000 ft | 336 kts | 222° |
| 2026-05-01 08:48 | 41.26883 | 19.43987 | 12765 ft | 338 kts | 223° |
| 2026-05-01 08:48 | 41.25136 | 19.41935 | 13480 ft | 340 kts | 223° |
| 2026-05-01 08:49 | 41.23355 | 19.39843 | 14195 ft | 343 kts | 223° |
| 2026-05-01 08:49 | 41.21558 | 19.37733 | 14836 ft | 347 kts | 223° |
| 2026-05-01 08:49 | 41.19757 | 19.35619 | 15468 ft | 350 kts | 223° |
| 2026-05-01 08:49 | 41.17934 | 19.33485 | 16097 ft | 353 kts | 223° |
| 2026-05-01 08:50 | 41.16091 | 19.31326 | 16710 ft | 356 kts | 223° |
| 2026-05-01 08:50 | 41.14226 | 19.29140 | 17323 ft | 359 kts | 223° |
| 2026-05-01 08:50 | 41.12354 | 19.26949 | 17918 ft | 362 kts | 223° |
| 2026-05-01 08:50 | 41.10461 | 19.24738 | 18489 ft | 366 kts | 223° |
| 2026-05-01 08:51 | 41.08544 | 19.22501 | 19051 ft | 369 kts | 223° |
| 2026-05-01 08:51 | 41.06616 | 19.20232 | 19628 ft | 372 kts | 225° |
| 2026-05-01 08:51 | 41.04786 | 19.17843 | 20211 ft | 373 kts | 229° |
| 2026-05-01 08:51 | 41.03025 | 19.15311 | 20773 ft | 375 kts | 230° |
| 2026-05-01 08:52 | 41.01268 | 19.12750 | 21315 ft | 377 kts | 230° |
| 2026-05-01 08:52 | 40.99525 | 19.10209 | 21859 ft | 380 kts | 230° |
| 2026-05-01 08:52 | 40.97741 | 19.07612 | 22403 ft | 382 kts | 230° |
| 2026-05-01 08:52 | 40.95937 | 19.04993 | 22944 ft | 384 kts | 230° |
| 2026-05-01 08:53 | 40.94142 | 19.02393 | 23495 ft | 386 kts | 230° |
| 2026-05-01 08:53 | 40.92335 | 18.99779 | 24014 ft | 387 kts | 231° |
| 2026-05-01 08:53 | 40.90565 | 18.97128 | 24459 ft | 389 kts | 233° |
| 2026-05-01 08:53 | 40.88912 | 18.94280 | 24906 ft | 389 kts | 238° |
| 2026-05-01 08:54 | 40.87436 | 18.91297 | 25312 ft | 390 kts | 242° |
| 2026-05-01 08:54 | 40.86070 | 18.88216 | 25705 ft | 392 kts | 243° |
| 2026-05-01 08:54 | 40.84705 | 18.85092 | 26104 ft | 394 kts | 244° |
| 2026-05-01 08:54 | 40.83343 | 18.81972 | 26507 ft | 395 kts | 244° |
| 2026-05-01 08:55 | 40.81958 | 18.78810 | 26890 ft | 396 kts | 244° |
| 2026-05-01 08:55 | 40.80570 | 18.75652 | 27339 ft | 396 kts | 244° |
| 2026-05-01 08:55 | 40.79202 | 18.72550 | 28090 ft | 386 kts | 245° |
| 2026-05-01 08:55 | 40.77870 | 18.69539 | 28880 ft | 375 kts | 245° |
| 2026-05-01 08:56 | 40.76650 | 18.66606 | 29659 ft | 362 kts | 249° |
| 2026-05-01 08:56 | 40.75623 | 18.63685 | 30419 ft | 348 kts | 253° |
| 2026-05-01 08:56 | 40.74781 | 18.60788 | 31168 ft | 334 kts | 256° |
| 2026-05-01 08:56 | 40.74098 | 18.57921 | 31691 ft | 327 kts | 259° |
| 2026-05-01 08:57 | 40.73454 | 18.55031 | 31993 ft | 328 kts | 258° |
| 2026-05-01 08:57 | 40.72812 | 18.52137 | 32121 ft | 335 kts | 258° |
| 2026-05-01 08:57 | 40.72142 | 18.49129 | 32142 ft | 346 kts | 258° |
| 2026-05-01 08:57 | 40.71460 | 18.46072 | 32140 ft | 357 kts | 258° |
| 2026-05-01 08:58 | 40.70014 | 18.39638 | 32137 ft | 377 kts | 258° |
| 2026-05-01 08:58 | 40.68487 | 18.32870 | 32107 ft | 394 kts | 257° |
| 2026-05-01 08:59 | 40.66917 | 18.25951 | 32111 ft | 396 kts | 257° |
| 2026-05-01 08:59 | 40.65337 | 18.18983 | 32119 ft | 396 kts | 257° |
| 2026-05-01 09:00 | 40.63763 | 18.12073 | 32130 ft | 396 kts | 257° |
| 2026-05-01 09:00 | 40.62608 | 18.05015 | 32113 ft | 392 kts | 266° |
| 2026-05-01 09:01 | 40.62328 | 17.97940 | 32135 ft | 389 kts | 274° |
| 2026-05-01 09:01 | 40.62900 | 17.90910 | 32139 ft | 386 kts | 282° |
| 2026-05-01 09:02 | 40.64118 | 17.84009 | 32143 ft | 386 kts | 284° |
| 2026-05-01 09:02 | 40.65402 | 17.77114 | 32142 ft | 387 kts | 284° |
| 2026-05-01 09:03 | 40.66670 | 17.70302 | 32152 ft | 386 kts | 284° |
| 2026-05-01 09:03 | 40.67952 | 17.63419 | 32146 ft | 387 kts | 285° |
| 2026-05-01 09:04 | 40.69228 | 17.56539 | 32148 ft | 387 kts | 284° |
| 2026-05-01 09:04 | 40.70494 | 17.49685 | 32148 ft | 387 kts | 284° |
| 2026-05-01 09:05 | 40.71767 | 17.42761 | 32159 ft | 388 kts | 285° |
| 2026-05-01 09:05 | 40.73037 | 17.35838 | 32166 ft | 388 kts | 285° |
| 2026-05-01 09:06 | 40.74300 | 17.28928 | 32157 ft | 389 kts | 284° |
| 2026-05-01 09:06 | 40.75562 | 17.21996 | 32166 ft | 389 kts | 284° |
| 2026-05-01 09:07 | 40.76816 | 17.15081 | 32160 ft | 389 kts | 284° |
| 2026-05-01 09:07 | 40.78065 | 17.08163 | 32162 ft | 390 kts | 285° |
| 2026-05-01 09:08 | 40.79314 | 17.01227 | 32181 ft | 390 kts | 285° |
| 2026-05-01 09:08 | 40.80581 | 16.94185 | 32195 ft | 393 kts | 285° |
| 2026-05-01 09:09 | 40.81828 | 16.87189 | 32171 ft | 391 kts | 284° |
| 2026-05-01 09:09 | 40.83063 | 16.80238 | 32176 ft | 392 kts | 284° |
| 2026-05-01 09:10 | 40.84314 | 16.73170 | 32190 ft | 394 kts | 284° |
| 2026-05-01 09:10 | 40.85551 | 16.66163 | 32168 ft | 393 kts | 285° |
| 2026-05-01 09:11 | 40.86788 | 16.59135 | 32182 ft | 394 kts | 285° |
| 2026-05-01 09:11 | 40.88020 | 16.52118 | 32180 ft | 393 kts | 285° |
| 2026-05-01 09:12 | 40.89246 | 16.45101 | 32174 ft | 393 kts | 285° |
| 2026-05-01 09:12 | 40.90472 | 16.38060 | 32176 ft | 394 kts | 285° |
| 2026-05-01 09:13 | 40.91695 | 16.30996 | 32180 ft | 395 kts | 284° |
| 2026-05-01 09:13 | 40.92912 | 16.23950 | 32174 ft | 394 kts | 284° |
| 2026-05-01 09:14 | 40.94129 | 16.16874 | 32179 ft | 396 kts | 284° |
| 2026-05-01 09:14 | 40.95339 | 16.09806 | 32183 ft | 395 kts | 284° |
| 2026-05-01 09:15 | 40.96552 | 16.02707 | 32185 ft | 396 kts | 284° |
| 2026-05-01 09:15 | 40.97757 | 15.95620 | 32181 ft | 396 kts | 284° |
| 2026-05-01 09:16 | 40.98956 | 15.88539 | 32180 ft | 396 kts | 285° |
| 2026-05-01 09:17 | 41.00753 | 15.77893 | 32182 ft | 396 kts | 285° |
| 2026-05-01 09:17 | 41.02528 | 15.67288 | 32183 ft | 396 kts | 285° |
| 2026-05-01 09:18 | 41.04303 | 15.56623 | 32183 ft | 395 kts | 285° |
| 2026-05-01 09:19 | 41.06064 | 15.45969 | 32188 ft | 395 kts | 285° |
| 2026-05-01 09:20 | 41.07812 | 15.35351 | 32183 ft | 396 kts | 285° |
| 2026-05-01 09:21 | 41.10128 | 15.21153 | 32183 ft | 395 kts | 285° |
| 2026-05-01 09:21 | 41.11865 | 15.10466 | 32185 ft | 397 kts | 285° |
| 2026-05-01 09:22 | 41.14153 | 14.96240 | 32188 ft | 395 kts | 284° |
| 2026-05-01 09:23 | 41.15855 | 14.85589 | 32196 ft | 396 kts | 285° |
| 2026-05-01 09:24 | 41.17557 | 14.74894 | 32195 ft | 395 kts | 285° |
| 2026-05-01 09:24 | 41.18673 | 14.67820 | 31786 ft | 393 kts | 285° |
| 2026-05-01 09:25 | 41.19777 | 14.60801 | 31344 ft | 388 kts | 285° |
| 2026-05-01 09:25 | 41.20871 | 14.53851 | 30891 ft | 383 kts | 285° |
| 2026-05-01 09:26 | 41.21409 | 14.50431 | 30677 ft | 383 kts | 285° |
| 2026-05-01 09:26 | 41.22498 | 14.43485 | 30228 ft | 384 kts | 285° |
| 2026-05-01 09:26 | 41.23037 | 14.40029 | 29996 ft | 384 kts | 285° |
| 2026-05-01 09:27 | 41.24116 | 14.33114 | 29538 ft | 386 kts | 285° |
| 2026-05-01 09:27 | 41.24657 | 14.29623 | 29303 ft | 386 kts | 285° |
| 2026-05-01 09:27 | 41.25196 | 14.26160 | 29078 ft | 387 kts | 285° |
| 2026-05-01 09:28 | 41.25738 | 14.22659 | 28840 ft | 388 kts | 285° |
| 2026-05-01 09:28 | 41.26284 | 14.19124 | 28616 ft | 389 kts | 285° |
| 2026-05-01 09:28 | 41.26827 | 14.15599 | 28390 ft | 391 kts | 285° |
| 2026-05-01 09:28 | 41.27364 | 14.12115 | 28173 ft | 392 kts | 285° |
| 2026-05-01 09:29 | 41.28453 | 14.04998 | 27693 ft | 390 kts | 285° |
| 2026-05-01 09:29 | 41.29005 | 14.01500 | 27425 ft | 388 kts | 288° |
| 2026-05-01 09:30 | 41.30731 | 13.94778 | 26821 ft | 385 kts | 291° |
| 2026-05-01 09:30 | 41.31493 | 13.91435 | 26433 ft | 383 kts | 290° |
| 2026-05-01 09:30 | 41.32989 | 13.84690 | 25566 ft | 377 kts | 290° |
| 2026-05-01 09:31 | 41.33736 | 13.81374 | 25122 ft | 374 kts | 290° |
| 2026-05-01 09:31 | 41.34475 | 13.78129 | 24678 ft | 371 kts | 291° |
| 2026-05-01 09:31 | 41.35970 | 13.71602 | 23577 ft | 366 kts | 291° |
| 2026-05-01 09:32 | 41.36705 | 13.68412 | 23022 ft | 363 kts | 291° |
| 2026-05-01 09:32 | 41.38167 | 13.62069 | 21954 ft | 358 kts | 291° |
| 2026-05-01 09:32 | 41.38892 | 13.58909 | 21416 ft | 356 kts | 291° |
| 2026-05-01 09:33 | 41.39616 | 13.55763 | 20901 ft | 353 kts | 291° |
| 2026-05-01 09:33 | 41.40329 | 13.52649 | 20384 ft | 351 kts | 291° |
| 2026-05-01 09:33 | 41.41735 | 13.46503 | 19365 ft | 348 kts | 292° |
| 2026-05-01 09:34 | 41.42436 | 13.43440 | 18862 ft | 346 kts | 292° |
| 2026-05-01 09:34 | 41.43136 | 13.40371 | 18347 ft | 345 kts | 292° |
| 2026-05-01 09:34 | 41.44519 | 13.34305 | 17332 ft | 343 kts | 291° |
| 2026-05-01 09:35 | 41.45211 | 13.31257 | 16845 ft | 342 kts | 291° |
| 2026-05-01 09:35 | 41.45439 | 13.24761 | 16282 ft | 363 kts | 269° |
| 2026-05-01 09:35 | 41.45161 | 13.21439 | 16026 ft | 362 kts | 269° |
| 2026-05-01 09:36 | 41.44892 | 13.18122 | 15747 ft | 360 kts | 269° |
| 2026-05-01 09:36 | 41.44651 | 13.14819 | 15474 ft | 360 kts | 269° |
| 2026-05-01 09:36 | 41.44432 | 13.11512 | 15225 ft | 358 kts | 270° |
| 2026-05-01 09:36 | 41.44231 | 13.08264 | 14863 ft | 356 kts | 270° |
| 2026-05-01 09:37 | 41.44035 | 13.04994 | 14440 ft | 354 kts | 270° |
| 2026-05-01 09:37 | 41.43655 | 12.98497 | 13486 ft | 349 kts | 270° |
| 2026-05-01 09:37 | 41.43472 | 12.95304 | 13019 ft | 347 kts | 270° |
| 2026-05-01 09:38 | 41.43102 | 12.88959 | 12075 ft | 344 kts | 270° |
| 2026-05-01 09:38 | 41.42918 | 12.85815 | 11589 ft | 341 kts | 270° |
| 2026-05-01 09:38 | 41.42734 | 12.82672 | 11122 ft | 339 kts | 270° |
| 2026-05-01 09:39 | 41.42370 | 12.76554 | 10580 ft | 320 kts | 270° |
| 2026-05-01 09:39 | 41.42195 | 12.73669 | 10432 ft | 307 kts | 270° |
| 2026-05-01 09:39 | 41.42031 | 12.70918 | 10261 ft | 293 kts | 270° |
| 2026-05-01 09:40 | 41.41871 | 12.68257 | 10074 ft | 288 kts | 270° |
| 2026-05-01 09:40 | 41.41560 | 12.62970 | 9368 ft | 285 kts | 270° |
| 2026-05-01 09:40 | 41.41405 | 12.60365 | 9016 ft | 283 kts | 270° |
| 2026-05-01 09:41 | 41.41246 | 12.57745 | 8662 ft | 281 kts | 269° |
| 2026-05-01 09:41 | 41.40935 | 12.52666 | 8149 ft | 268 kts | 269° |
| 2026-05-01 09:41 | 41.41002 | 12.50267 | 7866 ft | 248 kts | 294° |
| 2026-05-01 09:42 | 41.41927 | 12.48507 | 7606 ft | 228 kts | 327° |
| 2026-05-01 09:42 | 41.43245 | 12.47476 | 7433 ft | 219 kts | 336° |
| 2026-05-01 09:42 | 41.45938 | 12.45550 | 6905 ft | 219 kts | 335° |
| 2026-05-01 09:43 | 41.48562 | 12.43507 | 6295 ft | 219 kts | 333° |
| 2026-05-01 09:43 | 41.49853 | 12.42467 | 5983 ft | 213 kts | 333° |
| 2026-05-01 09:43 | 41.51085 | 12.41467 | 5684 ft | 207 kts | 333° |
| 2026-05-01 09:44 | 41.53510 | 12.39417 | 5225 ft | 206 kts | 335° |
| 2026-05-01 09:44 | 41.54806 | 12.38628 | 5005 ft | 204 kts | 342° |
| 2026-05-01 09:44 | 41.56147 | 12.38020 | 4764 ft | 204 kts | 345° |
| 2026-05-01 09:45 | 41.57512 | 12.37460 | 4512 ft | 203 kts | 346° |
| 2026-05-01 09:45 | 41.60200 | 12.36364 | 4051 ft | 201 kts | 346° |
| 2026-05-01 09:45 | 41.61520 | 12.35818 | 3829 ft | 200 kts | 345° |
| 2026-05-01 09:46 | 41.62855 | 12.35261 | 3607 ft | 200 kts | 345° |
| 2026-05-01 09:46 | 41.64189 | 12.34700 | 3398 ft | 200 kts | 345° |
| 2026-05-01 09:46 | 41.65532 | 12.34137 | 3190 ft | 201 kts | 345° |
| 2026-05-01 09:46 | 41.66864 | 12.33576 | 2926 ft | 201 kts | 344° |
| 2026-05-01 09:47 | 41.68185 | 12.33022 | 2657 ft | 196 kts | 345° |
| 2026-05-01 09:47 | 41.69457 | 12.32487 | 2394 ft | 189 kts | 344° |
| 2026-05-01 09:47 | 41.70702 | 12.31964 | 2150 ft | 181 kts | 345° |
| 2026-05-01 09:47 | 41.71901 | 12.31463 | 1947 ft | 180 kts | 345° |
| 2026-05-01 09:48 | 41.73083 | 12.30968 | 1702 ft | 180 kts | 345° |
| 2026-05-01 09:48 | 41.74269 | 12.30470 | 1464 ft | 177 kts | 344° |
| 2026-05-01 09:48 | 41.75391 | 12.29998 | 1208 ft | 158 kts | 345° |
| 2026-05-01 09:48 | 41.76381 | 12.29584 | 990 ft | 141 kts | 345° |
| 2026-05-01 09:49 | 41.77271 | 12.29210 | 805 ft | 132 kts | 346° |
| 2026-05-01 09:49 | 41.78154 | 12.28844 | 661 ft | 132 kts | 344° |
| 2026-05-01 09:49 | 41.79037 | 12.28473 | 491 ft | 132 kts | 345° |
| 2026-05-01 09:49 | 41.79902 | 12.28110 | 321 ft | 131 kts | 345° |
| 2026-05-01 09:50 | 41.80782 | 12.27742 | 153 ft | 131 kts | 345° |
| 2026-05-01 09:50 | 41.81656 | 12.27383 | 40 ft | 130 kts | 344° |
| 2026-05-01 09:50 | 41.82468 | 12.27050 | 10 ft | 106 kts | 340° |
| 2026-05-01 09:50 | 41.83004 | 12.26816 | 10 ft | 56 kts | 343° |
| 2026-05-01 09:51 | 41.83274 | 12.26712 | 11 ft | 35 kts | 340° |
| 2026-05-01 09:51 | 41.83499 | 12.26610 | 12 ft | 32 kts | 344° |
| 2026-05-01 09:51 | 41.83694 | 12.26486 | 13 ft | 30 kts | 323° |
| 2026-05-01 09:51 | 41.83846 | 12.26304 | 14 ft | 28 kts | 308° |
| 2026-05-01 09:52 | 41.83789 | 12.26166 | 14 ft | 24 kts | 168° |
| 2026-05-01 09:52 | 41.83628 | 12.26233 | 13 ft | 23 kts | 163° |
| 2026-05-01 09:52 | 41.83469 | 12.26301 | 12 ft | 23 kts | 163° |
| 2026-05-01 09:52 | 41.83313 | 12.26365 | 11 ft | 23 kts | 163° |
| 2026-05-01 09:53 | 41.83153 | 12.26431 | 11 ft | 23 kts | 162° |
| 2026-05-01 09:53 | 41.82997 | 12.26497 | 10 ft | 23 kts | 162° |
| 2026-05-01 09:53 | 41.82840 | 12.26562 | 10 ft | 23 kts | 163° |
| 2026-05-01 09:53 | 41.82685 | 12.26626 | 10 ft | 23 kts | 162° |
| 2026-05-01 09:54 | 41.82531 | 12.26690 | 10 ft | 23 kts | 163° |
| 2026-05-01 09:54 | 41.82378 | 12.26756 | 10 ft | 22 kts | 162° |
| 2026-05-01 09:54 | 41.82228 | 12.26819 | 10 ft | 22 kts | 160° |
| 2026-05-01 09:54 | 41.82082 | 12.26880 | 10 ft | 22 kts | 163° |
| 2026-05-01 09:55 | 41.81934 | 12.26941 | 11 ft | 21 kts | 163° |
| 2026-05-01 09:55 | 41.81789 | 12.26999 | 11 ft | 21 kts | 163° |
| 2026-05-01 09:55 | 41.81647 | 12.27060 | 11 ft | 21 kts | 160° |
| 2026-05-01 09:55 | 41.81508 | 12.27120 | 12 ft | 21 kts | 162° |
| 2026-05-01 09:56 | 41.81368 | 12.27177 | 12 ft | 20 kts | 162° |
| 2026-05-01 09:56 | 41.81228 | 12.27236 | 12 ft | 20 kts | 162° |
| 2026-05-01 09:56 | 41.81089 | 12.27296 | 12 ft | 20 kts | 162° |
| 2026-05-01 09:56 | 41.80953 | 12.27355 | 13 ft | 20 kts | 162° |
| 2026-05-01 09:57 | 41.80814 | 12.27334 | 13 ft | 20 kts | 197° |
| 2026-05-01 09:57 | 41.80690 | 12.27268 | 13 ft | 18 kts | 244° |
| 2026-05-01 09:57 | 41.80627 | 12.27125 | 13 ft | 17 kts | 249° |
| 2026-05-01 09:57 | 41.80585 | 12.26969 | 13 ft | 17 kts | 250° |
| 2026-05-01 09:58 | 41.80545 | 12.26810 | 14 ft | 17 kts | 252° |
| 2026-05-01 09:58 | 41.80498 | 12.26655 | 14 ft | 17 kts | 244° |
| 2026-05-01 09:58 | 41.80447 | 12.26504 | 15 ft | 17 kts | 250° |
| 2026-05-01 09:58 | 41.80377 | 12.26385 | 15 ft | 17 kts | 189° |
| 2026-05-01 09:59 | 41.80258 | 12.26408 | 15 ft | 17 kts | 174° |
| 2026-05-01 09:59 | 41.80150 | 12.26365 | 16 ft | 6 kts | 214° |
| 2026-05-01 09:59 | 41.80125 | 12.26309 | 16 ft | 7 kts | 268° |
| 2026-05-01 09:59 | 41.80110 | 12.26242 | 16 ft | 8 kts | 218° |
| 2026-05-01 10:00 | 41.80079 | 12.26221 | 16 ft | 2 kts | 208° |
| 2026-05-01 10:00 | 41.80068 | 12.26214 | 16 ft | 0 kts | 205° |